Tiempo atmosférico en la estación meteorológica de Coria, Cáceres (313 m.)



Fecha
DESCASC
Temp. máxima en grados centígrados (hora)
DESCASC
Temp. mínima en grados centígrados (hora)
DESCASC
Temp. media en grados centígrados
DESCASC
Racha de viento máxima en m/sg (hora)
DESCASC
Velocidad máxima media en intervalos de 10 minutos(hora)
DESCASC
Precipitaciones diarias en mm
DESCASC
Precipitaciones de 00:00 a 06:00 en mm
DESCASC
Precipitaciones de 06:00 a 12:00 en mm
DESCASC
Precipitaciones de 12:00 a 18:00 en mm
DESCASC
Precipitaciones de 18:00 a 24:00 en mm
DESCASC
22-04-2019 22.8 (17:30) 8.5 (08:10) 15.6 11.67 (19:50) 6.94 (19:50) 0 0 0 0 0
21-04-2019 21.9 (18:50) 9.9 (08:30) 15.9 10.28 (12:50) 6.11 (19:00) 0 0 0 0 0
20-04-2019 25.5 (16:00) 10.2 (07:50) 17.8 8.61 (01:10) 4.44 (00:40) 0 0 0 0 0
19-04-2019 18.9 (16:00) 9.8 (05:50) 14.3 9.72 (20:40) 6.11 (20:30) 0.4 0 0 0.4 0
18-04-2019 19.4 (17:20) 9.8 (00:00) 14.6 9.72 (18:50) 5.28 (17:50) 2 0.2 1.6 0 0.2
17-04-2019 21 (15:50) 11.2 (00:00) 16.1 17.22 (16:00) 9.72 (16:00) 10 0 0 1.8 8.2
16-04-2019 23.2 (18:10) 6.2 (00:00) 14.7 12.22 (17:20) 6.11 (17:40) 0 0 0 0 0
15-04-2019 22.1 (14:20) 12 (00:00) 17.1 18.33 (14:40) 10.28 (14:50) 0.4 0 0 0.4 0
14-04-2019 24.5 (17:10) 11.7 (00:00) 18.1 6.39 (14:50) 3.33 (00:10) 0 0 0 0 0
13-04-2019 24.8 (16:50) 8.3 (00:00) 16.5 10.56 (18:10) 5.56 (18:00) 0 0 0 0 0
12-04-2019 23.1 (19:30) 4.2 (00:00) 13.7 6.67 (05:10) 3.89 (00:30) 0 0 0 0 0
11-04-2019 20.3 (17:40) 5.9 (00:00) 13.1 9.44 (15:50) 4.44 (23:40) 0 0 0 0 0
10-04-2019 19 (18:40) 7.3 (00:00) 13.2 14.17 (14:20) 7.78 (14:20) 0 0 0 0 0
09-04-2019 17.5 (17:00) 6.6 (00:00) 12 16.94 (16:50) 8.33 (18:40) 1.2 0 0.6 0.6 0
08-04-2019 18 (15:10) 8.2 (00:00) 13.1 14.72 (17:40) 9.17 (17:50) 2.8 2.6 0.2 0 0
07-04-2019 13.8 (15:30) 6.6 (00:00) 10.2 9.44 (14:40) 4.44 (14:50) 1.8 0 0 1.2 0.6
06-04-2019 12.7 (16:20) 4.1 (00:00) 8.4 15.28 (17:40) 9.17 (11:30) 1 0 0.8 0.2 0
05-04-2019 13.5 (17:20) 4.8 (00:00) 9.2 15 (17:00) 9.72 (16:30) 2.6 2.2 0.2 0 0.2
04-04-2019 18 (17:00) 4.7 (00:00) 11.3 13.06 (20:20) 7.5 (20:30) 1.2 0 0 0 1.2
03-04-2019 17 (17:00) 5.8 (00:00) 11.4 13.61 (16:00) 7.22 (16:20) 0 0 0 0 0
02-04-2019 22.6 (17:00) 8.2 (00:00) 15.4 9.17 (16:20) 5.28 (18:20) 0 0 0 0 0
01-04-2019 18.9 (18:30) 10.5 (00:00) 14.7 8.61 (00:20) 5.28 (00:10) 0.2 0 0 0.2 0
31-03-2019 22 (17:40) 9.5 (00:00) 15.8 11.94 (12:10) 8.06 (12:10) 0 0 0 0 0
30-03-2019 22.3 (16:20) 7.8 (00:00) 15 12.78 (09:00) 7.5 (10:00) 0 0 0 0 0
29-03-2019 21 (16:00) 7.9 (00:00) 14.5 -- (--) -- (--) 0 0 0 0 0
28-03-2019 22.5 (16:00) 5.1 (00:00) 13.8 10 (11:10) 6.39 (11:00) 0 0 0 0 0
27-03-2019 21.5 (17:10) 9.6 (00:00) 15.6 14.72 (09:40) 8.61 (11:10) 0 0 0 0 0
26-03-2019 23.4 (17:10) 8 (00:00) 15.7 12.5 (15:00) 6.39 (11:10) 0 0 0 0 0
25-03-2019 25 (15:50) 9.1 (00:00) 17.1 13.33 (22:50) 7.78 (23:00) 0 0 0 0 0

Gráficas

Temp. máximas Temp. mínimas Temp. medias Precipitaciones Rachas de viento máximas Velocidades máximas media en intervalos de 10 minutos

Datos horarios

Fecha y hora oficial Temperatura (ºC) Velocidad del viento (km/h) Dirección del viento Racha (km/h) Dirección de racha Precipitación (mm) Presión (hPa) Tendencia (hPa) Humedad (%)
2019-04-23 23:00:00 6.8 6 Sudoeste 27 Oeste 0 967.6 2.5 82
2019-04-23 22:00:00 7.6 17 Oeste 30 Oeste 0 966.9 2.3 74
2019-04-23 21:00:00 8.9 19 Oeste 38 Oeste 0 965.8 1.9 68
2019-04-23 20:00:00 9.4 22 Oeste 46 Sudoeste 0 965.1 1.2 70
2019-04-23 19:00:00 9.6 21 Oeste 54 Oeste 0 964.6 1.4 78
2019-04-23 18:00:00 11.6 19 Sudoeste 51 Sudoeste 0 963.9 1.1 60
2019-04-23 17:00:00 10.4 22 Oeste 51 Oeste 0 963.9 1.5 64
2019-04-23 16:00:00 13.5 29 Oeste 49 Oeste 0 963.2 0.4 57
2019-04-23 15:00:00 12.6 26 Sudoeste 48 Oeste 0 962.8 -0.1 68
2019-04-23 14:00:00 12.6 17 Sudoeste 41 Oeste 0.2 962.4 0 73
2019-04-23 13:00:00 11.6 13 Sudoeste 32 Sudoeste 0.2 962.8 0.6 73
2019-04-23 12:00:00 11.1 17 Sudoeste 34 Sudoeste 0 962.9 0.8 76
2019-04-23 11:00:00 10 18 Sudoeste 35 Sudoeste 0 962.4 0.8 76
2019-04-23 10:00:00 9.7 15 Oeste 25 Oeste 0 962.2 0.7 85
2019-04-23 09:00:00 7.7 11 Oeste 19 Oeste 0 962.1 0.6 95
2019-04-23 08:00:00 6.5 14 Oeste 22 Sudoeste 0 961.6 0.2 94
2019-04-23 07:00:00 7.2 10 Sudoeste 26 Sudoeste 0 961.5 0.4 93
2019-04-23 06:00:00 8.4 15 Sudoeste 30 Sudoeste 0 961.5 -0.1 94
2019-04-23 05:00:00 8.9 9 Sudoeste 15 Sudoeste 0.2 961.4 0 95
2019-04-23 04:00:00 8.9 10 Oeste 18 Oeste 1.8 961.1 -0.6 96
2019-04-23 03:00:00 9.1 9 Noroeste 38 Oeste 1.8 961.6 -0.2 94
2019-04-23 02:00:00 12.3 10 Sudoeste 30 Oeste 0.4 961.4 -0.6 86
2019-04-23 01:00:00 13.2 14 Oeste 29 Oeste 0 961.7 -0.3 82
2019-04-23 00:00:00 13.7 4 Oeste 37 Sudoeste 0 961.8 -0.1 80
2019-04-22 23:00:00 15.4 9 Oeste 23 Oeste 0 962 -0.2 63
2019-04-22 22:00:00 16.5 13 Oeste 38 Oeste 0 962 -0.4 51
2019-04-22 21:00:00 17.3 18 Sudoeste 41 Oeste 0 961.9 -0.8 50
2019-04-22 20:00:00 18.5 19 Oeste 42 Sudoeste 0 962.2 -1.2 50
2019-04-22 19:00:00 19.9 17 Oeste 34 Oeste 0 962.4 -1.9 43
2019-04-22 18:00:00 21.5 17 Sudoeste 30 Oeste 0 962.7 -2.4 35
2019-04-22 17:00:00 22.2 14 Oeste 28 Sudoeste 0 963.4 -2.8 35
2019-04-22 16:00:00 21.5 8 Oeste 21 Oeste 0 964.3 -2.9 41
2019-04-22 15:00:00 21.1 7 Oeste 18 Oeste 0 965.1 -2.8 40
2019-04-22 14:00:00 19.9 8 Sudoeste 21 Oeste 0 966.2 -2.4 43
2019-04-22 13:00:00 18.4 3 Nordeste 18 Sudeste 0 967.2 -1.4 48
2019-04-22 12:00:00 17 9 Sudeste 17 Sudeste 0 967.9 -0.8 51
2019-04-22 11:00:00 14.8 8 Este 14 Este 0 968.6 0.1 63
2019-04-22 10:00:00 12.8 8 Este 13 Este 0 968.6 0.1 72
2019-04-22 09:00:00 10.8 0 Calma 7 Oeste 0 968.7 -0.3 80
2019-04-22 08:00:00 8.7 2 Noroeste 9 Este 0 968.5 -1 80
2019-04-22 07:00:00 9.4 3 Nordeste 10 Este 0 968.5 -1.6 78
2019-04-22 06:00:00 10.7 10 Este 15 Este 0 969 -2 74
2019-04-22 05:00:00 10.5 9 Este 12 Este 0 969.5 -2.3 77
2019-04-22 04:00:00 11.8 8 Este 11 Nordeste 0 970.1 -1.8 69
2019-04-22 03:00:00 12.5 0 Calma 10 Este 0 971 -1.3 70
2019-04-22 02:00:00 13.1 4 Nordeste 8 Nordeste 0 971.8 -0.8 65
2019-04-22 01:00:00 13.1 5 Norte 15 Este 0 971.9 -0.3 66
2019-04-22 00:00:00 13.2 8 Este 15 Este 0 972.3 0.6 65
2019-04-21 23:00:00 13.5 7 Nordeste 19 Este 0 972.6 1 65
2019-04-21 22:00:00 14 12 Este 22 Nordeste 0 972.2 0.9 63
2019-04-21 21:00:00 15.9 14 Este 27 Este 0 971.7 0.1 59
2019-04-21 20:00:00 18 17 Este 30 Este 0 971.6 -0.4 51
2019-04-21 19:00:00 20.1 22 Este 32 Este 0 971.3 -1.7 44
2019-04-21 18:00:00 20.5 3 Este 15 Sudeste 0 971.6 -1.8 38
2019-04-21 17:00:00 20.7 8 Este 22 Sudeste 0 972 -2.1 38
2019-04-21 16:00:00 20.2 9 Este 26 Nordeste 0 973 -1.8 35
2019-04-21 15:00:00 20.7 10 Nordeste 27 Nordeste 0 973.4 -1.9 33
2019-04-21 14:00:00 20 13 Nordeste 30 Norte 0 974.1 -1.7 34
2019-04-21 13:00:00 19.9 17 Este 37 Este 0 974.8 -1.3 38
2019-04-21 12:00:00 18.6 6 Oeste 17 Este 0 975.3 -1.3 55
2019-04-21 11:00:00 15.7 5 Sudoeste 11 Oeste 0 975.8 -0.7 61
2019-04-21 10:00:00 14 3 Este 12 Noroeste 0 976.1 -0.8 71
2019-04-21 09:00:00 11.7 5 Noroeste 12 Norte 0 976.6 -0.5 75
2019-04-21 08:00:00 11.2 6 Norte 21 Norte 0 976.5 -1.1 71
2019-04-21 07:00:00 11 11 Norte 19 Norte 0 976.9 -1.3 72
2019-04-21 06:00:00 11.1 4 Norte 17 Este 0 977.1 -1.9 72
2019-04-21 05:00:00 11.8 6 Este 20 Este 0 977.6 -1.6 69
2019-04-21 04:00:00 12 9 Este 19 Este 0 978.2 -1.1 69
2019-04-21 03:00:00 12.5 9 Este 31 Sudeste 0 979 0 71
2019-04-21 02:00:00 13.5 15 Este 29 Sudeste 0 979.2 0.8 68
2019-04-21 01:00:00 14 4 Nordeste 13 Este 0 979.3 1.8 69
2019-04-21 00:00:00 15.3 7 Sudeste 20 Sudeste 0 979 1.9 64
2019-04-20 23:00:00 16.5 11 Sudeste 23 Sudeste 0 978.4 1.7 62
2019-04-20 22:00:00 18.8 12 Este 23 Este 0 977.5 0.8 47
2019-04-20 21:00:00 20.2 13 Este 27 Este 0 977.1 0.3 44
2019-04-20 20:00:00 22.7 10 Sudeste 21 Sudeste 0 976.7 -0.4 38
2019-04-20 19:00:00 24 9 Sudeste 26 Este 0 976.7 -1.2 36
2019-04-20 18:00:00 24.5 12 Sudeste 27 Sudeste 0 976.8 -1.7 33
2019-04-20 17:00:00 24.6 14 Sudeste 31 Este 0 977.1 -2 36
2019-04-20 16:00:00 25.4 10 Sudeste 26 Sudeste 0 977.9 -1.3 35
2019-04-20 15:00:00 23.8 9 Sur 21 Sur 0 978.5 -1.3 39
2019-04-20 14:00:00 22.1 12 Este 26 Este 0 979.1 -0.6 42
2019-04-20 13:00:00 21.3 14 Este 27 Sudeste 0 979.2 -0.6 46
2019-04-20 12:00:00 19.7 12 Sudeste 23 Este 0 979.8 0.3 53
2019-04-20 11:00:00 17.5 6 Este 15 Nordeste 0 979.7 -0.4 60
2019-04-20 10:00:00 13.7 5 Oeste 13 Noroeste 0 979.8 0 77
2019-04-20 09:00:00 11.4 7 Norte 14 Noroeste 0 979.5 -0.1 90
2019-04-20 08:00:00 10.2 4 Nordeste 10 Este 0 980.1 -1 92
2019-04-20 07:00:00 10.8 5 Noroeste 12 Noroeste 0 979.8 -1.9 91
2019-04-20 06:00:00 11.3 8 Norte 17 Norte 0 979.6 -1.8 87
2019-04-20 05:00:00 10.6 9 Este 15 Nordeste 0 981.1 -0.8 89
2019-04-20 04:00:00 11.1 5 Norte 20 Este 0 981.7 -0.1 84
2019-04-20 03:00:00 11.5 13 Este 28 Este 0 981.4 -0.1 80
2019-04-20 02:00:00 11.8 9 Este 31 Este 0 981.9 0.8 84
2019-04-20 01:00:00 11.8 12 Este 26 Este 0 981.8 1.4 85
2019-04-20 00:00:00 12.2 14 Este 26 Este 0 981.5 1.7 80
2019-04-19 23:00:00 12.7 13 Este 27 Este 0 981.1 2.1 77
2019-04-19 22:00:00 13.5 13 Este 25 Este 0 980.4 1.7 71
2019-04-19 21:00:00 14.1 17 Este 35 Este 0 979.8 1.3 68
2019-04-19 20:00:00 15.2 15 Este 28 Este 0 979 0.7 71
2019-04-19 19:00:00 16 15 Este 27 Este 0 978.7 0.4 69
2019-04-19 18:00:00 15.7 9 Este 33 Este 0.4 978.5 0.2 74
2019-04-19 17:00:00 17.8 12 Nordeste 30 Este 0 978.3 -0.2 58
2019-04-19 16:00:00 18.4 18 Este 30 Este 0 978.3 -0.8 55
2019-04-19 15:00:00 17.7 15 Este 30 Este 0 978.3 -0.7 57
2019-04-19 14:00:00 17.6 14 Este 33 Este 0 978.5 0.2 58
2019-04-19 13:00:00 15.6 15 Este 31 Este 0 979.1 1.2 73
2019-04-19 12:00:00 13.6 17 Este 30 Este 0 979 1.5 82
2019-04-19 11:00:00 12.2 16 Este 26 Este 0 978.3 1.4 88
2019-04-19 10:00:00 11.1 13 Este 24 Este 0 977.9 1.5 93
2019-04-19 09:00:00 10.3 5 Este 11 Este 0 977.5 1.3 96
2019-04-19 08:00:00 9.8 9 Este 13 Este 0 976.9 0.7 97
2019-04-19 07:00:00 9.9 5 Este 11 Este 0 976.4 0.1 97
2019-04-19 06:00:00 9.9 5 Este 12 Este 0 976.2 -0.4 97
2019-04-19 05:00:00 10.6 6 Este 10 Norte 0 976.2 -0.7 90
2019-04-19 04:00:00 10.2 3 Noroeste 8 Noroeste 0 976.3 -0.6 94
2019-04-19 03:00:00 10.1 2 Noroeste 8 Oeste 0 976.6 -0.5 93
2019-04-19 02:00:00 10.6 3 Este 7 Nordeste 0 976.9 -0.2 93
2019-04-19 01:00:00 10.6 5 Noroeste 9 Oeste 0 976.9 0.6 93
2019-04-19 00:00:00 10.4 5 Oeste 9 Oeste 0 977.1 1.5 94
2019-04-18 23:00:00 11 5 Sudeste 14 Este 0 977.1 1.4 91
2019-04-18 22:00:00 11.1 2 Sur 15 Norte 0 976.3 0.6 83
2019-04-18 21:00:00 11.7 5 Nordeste 9 Este 0.2 975.6 1.1 83
2019-04-18 20:00:00 11.2 7 Este 23 Este 0 975.7 1.3 87
2019-04-18 19:00:00 12.2 15 Este 35 Sudeste 0 975.7 0.8 80
2019-04-18 18:00:00 16.4 15 Noroeste 34 Noroeste 0 974.5 -0.9 58
2019-04-18 17:00:00 18.3 8 Noroeste 18 Norte 0 974.4 -1.3 52
2019-04-18 16:00:00 17.9 5 Sudeste 15 Este 0 974.9 -1.3 56
2019-04-18 15:00:00 17.1 6 Sudoeste 14 Sur 0 975.4 -1.2 61
2019-04-18 14:00:00 15 6 Este 19 Este 0 975.7 -0.8 68
2019-04-18 13:00:00 15.8 8 Este 18 Este 0 976.2 -0.3 76
2019-04-18 12:00:00 13.7 7 Este 18 Sudeste 0 976.6 0.4 80
2019-04-18 11:00:00 13.3 7 Este 16 Este 0 976.5 0.7 87
2019-04-18 10:00:00 12.1 10 Este 15 Este 0 976.5 0.9 95
2019-04-18 09:00:00 10.7 8 Este 15 Este 0 976.2 0.8 98
2019-04-18 08:00:00 10.4 9 Este 15 Este 1 975.8 0.4 97
2019-04-18 07:00:00 10.5 6 Este 10 Este 0.6 975.6 0.1 96
2019-04-18 06:00:00 10.4 8 Este 11 Sudeste 0 975.4 -0.6 96
2019-04-18 05:00:00 9.9 5 Sudeste 13 Sudeste 0 975.4 -1.1 95
2019-04-18 04:00:00 10.1 5 Este 15 Sudeste 0 975.5 -0.5 95
2019-04-18 03:00:00 10.4 6 Sudeste 14 Sur 0 976 0.4 95
2019-04-18 02:00:00 11 8 Sudeste 16 Sudeste 0 976.5 1.3 96
2019-04-18 01:00:00 11.2 7 Sur 22 Sur 0.2 976 1.7 96
2019-04-18 00:00:00 11.3 10 Sur 22 Sudoeste 1.6 975.6 2.4 95
2019-04-17 23:00:00 11.8 4 Sur 9 Sudeste 0.2 975.2 2.3 96
2019-04-17 22:00:00 11.8 7 Sudeste 24 Este 1 974.3 2 96
2019-04-17 21:00:00 11.6 14 Sudeste 24 Sudeste 0.4 973.2 1.1 95
2019-04-17 20:00:00 11.9 6 Este 16 Este 1.2 972.9 1.7 96
2019-04-17 19:00:00 11.9 3 Sudeste 21 Sudoeste 3.8 972.3 1.2 94
2019-04-17 18:00:00 12.2 18 Sudoeste 44 Sudoeste 1.8 972.1 0.2 91
2019-04-17 17:00:00 18.5 25 Sur 58 Sudeste 0 971.2 -1.3 60
2019-04-17 16:00:00 20.5 35 Sudeste 62 Sudeste 0 971.1 -2.3 43
2019-04-17 15:00:00 20 28 Sudeste 49 Sudeste 0 971.9 -2.1 44
2019-04-17 14:00:00 18.9 28 Sudeste 46 Sudeste 0 972.5 -1.5 46
2019-04-17 13:00:00 17 18 Sudeste 30 Sudeste 0 973.4 -0.8 57
2019-04-17 12:00:00 15.4 16 Este 28 Este 0 974 -0.1 62
2019-04-17 11:00:00 14.2 16 Este 24 Este 0 974 0.3 63
2019-04-17 10:00:00 13.1 13 Este 23 Este 0 974.2 0.5 66
2019-04-17 09:00:00 12.1 13 Este 18 Este 0 974.1 0.1 65
2019-04-17 08:00:00 11.7 12 Este 24 Sudeste 0 973.7 -0.2 63
2019-04-17 07:00:00 11.5 7 Sudeste 16 Sudeste 0 973.7 -0.2 63
2019-04-17 06:00:00 12.5 4 Sur 8 Sur 0 974 -0.4 56
2019-04-17 05:00:00 13.4 4 Sur 12 Sudeste 0 973.9 -0.6 54
2019-04-17 04:00:00 14.1 5 Sudeste 21 Sudeste 0 973.9 -0.5 52
2019-04-17 03:00:00 15.1 9 Sur 23 Sur 0 974.4 -0.2 47
2019-04-17 02:00:00 15 9 Sudeste 17 Sudeste 0 974.5 0 53
2019-04-17 01:00:00 15.8 7 Este 24 Este 0 974.4 -0.1 50
2019-04-17 00:00:00 15.6 16 Este 22 Este 0 974.6 -0.3 51
2019-04-16 23:00:00 16.6 14 Este 23 Este 0 974.5 -0.7 47
2019-04-16 22:00:00 17.9 14 Este 22 Este 0 974.5 -1.3 43
2019-04-16 21:00:00 19.4 10 Este 24 Sudeste 0 974.9 -1.5 37
2019-04-16 20:00:00 21 16 Sudeste 32 Sudeste 0 975.2 -1.9 33
2019-04-16 19:00:00 22 19 Sudeste 37 Sudeste 0 975.8 -2.3 31
2019-04-16 18:00:00 23.1 17 Sudeste 44 Sudeste 0 976.4 -2.7 29
2019-04-16 17:00:00 22.4 21 Sudeste 37 Este 0 977.1 -3.2 29
2019-04-16 16:00:00 22.6 18 Sudeste 36 Sudeste 0 978.1 -2.8 33
2019-04-16 15:00:00 21.1 19 Este 34 Sudeste 0 979.1 -2.5 36
2019-04-16 14:00:00 19.6 13 Sudeste 28 Este 0 980.3 -1.3 40
2019-04-16 13:00:00 18.4 13 Este 25 Este 0 980.9 -1 49
2019-04-16 12:00:00 16.7 7 Sudeste 15 Sudeste 0 981.6 0 58
2019-04-16 11:00:00 14 7 Este 15 Este 0 981.6 0.3 67
2019-04-16 10:00:00 10.5 5 Sudeste 9 Sudeste 0 981.9 0.5 83
2019-04-16 09:00:00 7.3 2 Oeste 6 Noroeste 0 981.6 0.3 93
2019-04-16 08:00:00 6.3 4 Nordeste 8 Este 0 981.3 -0.1 94
2019-04-16 07:00:00 6.7 4 Nordeste 8 Este 0 981.4 -0.3 91
2019-04-16 06:00:00 7.3 4 Este 14 Noroeste 0 981.3 -0.8 87
2019-04-16 05:00:00 9.2 10 Noroeste 17 Noroeste 0 981.4 -0.3 79
2019-04-16 04:00:00 9.1 9 Noroeste 14 Norte 0 981.7 0.5 79
2019-04-16 03:00:00 9.3 3 Oeste 8 Nordeste 0 982.1 1.3 79
2019-04-16 02:00:00 10.4 4 Noroeste 9 Noroeste 0 981.7 1.1 75
2019-04-16 01:00:00 10.6 3 Oeste 8 Este 0 981.2 1.5 76
2019-04-16 00:00:00 12 6 Norte 18 Noroeste 0 980.8 2.6 70
2019-04-15 23:00:00 13 9 Noroeste 23 Oeste 0 980.6 2.8 67
2019-04-15 22:00:00 14.3 13 Oeste 30 Oeste 0 979.7 2 59
2019-04-15 21:00:00 16 13 Oeste 38 Oeste 0 978.2 0.8 53
2019-04-15 20:00:00 18.6 19 Oeste 41 Sudoeste 0 977.8 0.4 52
2019-04-15 19:00:00 18.4 18 Oeste 30 Oeste 0 977.7 0.2 53
2019-04-15 18:00:00 18 6 Sudoeste 20 Sudoeste 0 977.4 0.5 64
2019-04-15 17:00:00 16.1 9 Sudoeste 21 Sudoeste 0.2 977.4 1.1 77
2019-04-15 16:00:00 14.1 13 Oeste 56 Oeste 0.2 977.5 0.9 78
2019-04-15 15:00:00 16.9 31 Oeste 66 Oeste 0 976.9 0.5 56
2019-04-15 14:00:00 20.7 24 Oeste 39 Oeste 0 976.3 0.3 46
2019-04-15 13:00:00 20.2 14 Sudoeste 30 Sudoeste 0 976.6 0.6 49
2019-04-15 12:00:00 18.3 13 Sudoeste 34 Sudoeste 0 976.4 0.6 63
2019-04-15 11:00:00 17.7 10 Sudoeste 18 Sudoeste 0 976 0.9 70
2019-04-15 10:00:00 15.8 6 Sudoeste 12 Sudoeste 0 976 1.6 81
2019-04-15 09:00:00 14 3 Oeste 9 Oeste 0 975.8 0.7 89
2019-04-15 08:00:00 14.8 7 Sudeste 17 Este 0 975.1 -0.7 79
2019-04-15 07:00:00 15.6 10 Este 19 Este 0 974.4 -2.2 76
2019-04-15 06:00:00 15.4 10 Este 14 Este 0 975.1 -1.9 80
2019-04-15 05:00:00 15.8 9 Este 15 Este 0 975.8 -2 78
2019-04-15 04:00:00 16 6 Este 12 Este 0 976.6 -1.3 77
2019-04-15 03:00:00 16.8 8 Este 10 Este 0 977 -1.2 74
2019-04-15 02:00:00 16.5 6 Este 8 Este 0 977.8 -0.5 74
2019-04-15 01:00:00 17.1 3 Noroeste 6 Noroeste 0 977.9 -0.2 72
2019-04-15 00:00:00 17.7 3 Noroeste 7 Noroeste 0 978.2 0.1 69
2019-04-14 23:00:00 18.4 5 Noroeste 7 Oeste 0 978.3 0.3 66
2019-04-14 22:00:00 19.5 4 Noroeste 9 Oeste 0 978.1 -0.2 61
2019-04-14 21:00:00 21 4 Oeste 9 Oeste 0 978.1 -0.6 57
2019-04-14 20:00:00 22.7 4 Oeste 14 Oeste 0 978 -1.2 52
2019-04-14 19:00:00 23.2 4 Oeste 17 Oeste 0 978.3 -1.9 48
2019-04-14 18:00:00 23.4 4 Norte 14 Oeste 0 978.7 -1.9 49
2019-04-14 17:00:00 24.1 9 Oeste 18 Sudoeste 0 979.2 -1.8 48
2019-04-14 16:00:00 24 7 Sudoeste 18 Oeste 0 980.2 -1.4 50
2019-04-14 15:00:00 22.3 12 Oeste 23 Oeste 0 980.6 -1.4 53
2019-04-14 14:00:00 22.3 8 Sudoeste 18 Oeste 0 981 -1.2 53
2019-04-14 13:00:00 20.4 7 Oeste 14 Oeste 0 981.6 -0.1 60
2019-04-14 12:00:00 17.9 4 Oeste 13 Oeste 0 982 0.4 74
2019-04-14 11:00:00 15.3 7 Noroeste 14 Noroeste 0 982.2 1 89
2019-04-14 10:00:00 13.7 4 Oeste 12 Oeste 0 981.7 0.7 98
2019-04-14 09:00:00 12.4 4 Noroeste 9 Noroeste 0 981.6 0.4 97
2019-04-14 08:00:00 11.9 2 Noroeste 10 Noroeste 0 981.2 -0.5 96
2019-04-14 07:00:00 12.5 8 Noroeste 11 Noroeste 0 981 -0.8 96
2019-04-14 06:00:00 12.7 6 Noroeste 11 Noroeste 0 981.2 -0.7 95
2019-04-14 05:00:00 12.9 4 Oeste 11 Oeste 0 981.7 -0.6 94
2019-04-14 04:00:00 13.2 5 Oeste 17 Oeste 0 981.8 -0.7 93
2019-04-14 03:00:00 13.9 7 Sudoeste 16 Oeste 0 981.9 -0.5 89
2019-04-14 02:00:00 14.8 8 Sudoeste 15 Sudoeste 0 982.3 -0.3 84
2019-04-14 01:00:00 15.2 9 Sudoeste 21 Oeste 0 982.5 0.5 80
2019-04-14 00:00:00 15.5 14 Oeste 24 Oeste 0 982.4 0.9 78
2019-04-13 23:00:00 15.9 10 Oeste 18 Oeste 0 982.6 1.2 74
2019-04-13 22:00:00 17.2 8 Oeste 20 Oeste 0 982 1 64
2019-04-13 21:00:00 18.4 11 Oeste 21 Oeste 0 981.5 0.7 51
2019-04-13 20:00:00 19.9 15 Oeste 30 Oeste 0 981.4 0.5 36
2019-04-13 19:00:00 22.5 18 Oeste 38 Oeste 0 981 -0.6 28
2019-04-13 18:00:00 23 20 Oeste 33 Oeste 0 980.8 -1.1 26
2019-04-13 17:00:00 24.4 10 Sudoeste 30 Sudoeste 0 980.9 -1.3 25
2019-04-13 16:00:00 23.6 11 Oeste 27 Oeste 0 981.6 -1 27
2019-04-13 15:00:00 22.7 8 Sudoeste 26 Oeste 0 981.9 -1 27
2019-04-13 14:00:00 21.6 8 Sudoeste 22 Oeste 0 982.2 -0.8 33
2019-04-13 13:00:00 21 5 Sudeste 14 Sur 0 982.6 -0.4 33
2019-04-13 12:00:00 18.5 4 Sur 12 Sudeste 0 982.9 0.2 39
2019-04-13 11:00:00 15.5 7 Este 15 Sudeste 0 983 0.7 49
2019-04-13 10:00:00 13 7 Sudeste 13 Este 0 983 1.3 58
2019-04-13 09:00:00 9.6 2 Sudeste 10 Este 0 982.7 0.9 70
2019-04-13 08:00:00 9 2 Sudeste 13 Este 0 982.3 0.9 73
2019-04-13 07:00:00 9.2 3 Norte 13 Norte 0 981.7 0.2 71
2019-04-13 06:00:00 9.8 10 Noroeste 15 Noroeste 0 981.8 0 67
2019-04-13 05:00:00 9.8 7 Noroeste 14 Noroeste 0 981.4 -0.6 66
2019-04-13 04:00:00 10.3 2 Sudoeste 11 Oeste 0 981.5 -0.3 62
2019-04-13 03:00:00 12.6 6 Norte 12 Noroeste 0 981.8 0.4 53
2019-04-13 02:00:00 11.7 6 Oeste 12 Noroeste 0 982 0.8 56
2019-04-13 01:00:00 13.1 4 Norte 12 Norte 0 981.8 1.2 48
2019-04-13 00:00:00 14 5 Nordeste 17 Norte 0 981.4 1.3 47
2019-04-12 23:00:00 16.5 10 Norte 16 Norte 0 981.2 1.3 37
2019-04-12 22:00:00 17.4 9 Norte 14 Norte 0 980.6 0.7 34
2019-04-12 21:00:00 19.2 6 Norte 16 Noroeste 0 980.1 0 32
2019-04-12 20:00:00 21.3 9 Noroeste 19 Noroeste 0 979.9 -0.6 28
2019-04-12 19:00:00 22.8 5 Norte 21 Oeste 0 979.9 -1.4 26
2019-04-12 18:00:00 22.5 8 Noroeste 20 Oeste 0 980.1 -1.8 25
2019-04-12 17:00:00 22.1 5 Oeste 21 Oeste 0 980.5 -2 27
2019-04-12 16:00:00 21.1 5 Oeste 22 Noroeste 0 981.3 -1.6 28
2019-04-12 15:00:00 20.8 4 Este 18 Oeste 0 981.9 -1.4 31
2019-04-12 14:00:00 19.4 8 Nordeste 19 Nordeste 0 982.5 -0.8 31
2019-04-12 13:00:00 18.6 5 Sur 23 Sudeste 0 982.9 -0.3 32
2019-04-12 12:00:00 16.4 6 Sudeste 14 Sudeste 0 983.3 0.1 45
2019-04-12 11:00:00 13.2 6 Sudeste 11 Sudeste 0 983.3 0.5 56
2019-04-12 10:00:00 10.4 6 Este 12 Este 0 983.2 0.7 64
2019-04-12 09:00:00 7.1 8 Este 11 Este 0 983.2 0.8 75
2019-04-12 08:00:00 4.4 3 Noroeste 8 Este 0 982.8 0.6 78
2019-04-12 07:00:00 5.9 4 Nordeste 10 Este 0 982.5 0.1 73
2019-04-12 06:00:00 6.7 4 Este 24 Norte 0 982.4 -0.1 71
2019-04-12 05:00:00 8.6 8 Nordeste 19 Norte 0 982.2 -0.2 60
2019-04-12 04:00:00 7.8 5 Noroeste 10 Oeste 0 982.4 0 65
2019-04-12 03:00:00 8 5 Nordeste 11 Nordeste 0 982.5 0.1 63
2019-04-12 02:00:00 9.9 5 Este 23 Norte 0 982.4 0 58
2019-04-12 01:00:00 12.6 13 Norte 23 Nordeste 0 982.4 0.5 44
2019-04-12 00:00:00 13.4 13 Norte 25 Norte 0 982.4 0.9 41
2019-04-11 23:00:00 14 13 Norte 23 Nordeste 0 982.4 1.1 41
2019-04-11 22:00:00 14.4 10 Nordeste 19 Norte 0 981.9 0.8 40
2019-04-11 21:00:00 15.9 7 Norte 25 Norte 0 981.5 0.5 36
2019-04-11 20:00:00 18.5 14 Norte 30 Noroeste 0 981.3 0.1 29
2019-04-11 19:00:00 19.6 15 Noroeste 31 Noroeste 0 981.1 -0.5 28
2019-04-11 18:00:00 19.5 11 Noroeste 27 Noroeste 0 981 -1.1 28
2019-04-11 17:00:00 19.8 15 Noroeste 30 Noroeste 0 981.2 -1.2 24
2019-04-11 16:00:00 19 12 Noroeste 34 Norte 0 981.6 -1.4 29
2019-04-11 15:00:00 18.4 11 Norte 28 Oeste 0 982.1 -1.1 29
2019-04-11 14:00:00 17.8 9 Noroeste 31 Noroeste 0 982.4 -0.8 35
2019-04-11 13:00:00 16.8 9 Noroeste 23 Noroeste 0 983 -0.1 41
2019-04-11 12:00:00 15.2 9 Noroeste 20 Noroeste 0 983.2 0.3 51
2019-04-11 11:00:00 12.8 7 Noroeste 21 Noroeste 0 983.2 0.8 62
2019-04-11 10:00:00 10.1 12 Noroeste 19 Noroeste 0 983.1 0.8 73
2019-04-11 09:00:00 8.1 7 Norte 15 Norte 0 982.9 0.6 78
2019-04-11 08:00:00 6.1 3 Norte 6 Norte 0 982.4 0.1 85
2019-04-11 07:00:00 6.8 4 Norte 10 Noroeste 0 982.3 0.4 82
2019-04-11 06:00:00 6.9 2 Sudoeste 8 Norte 0 982.3 0.2 84
2019-04-11 05:00:00 6.8 4 Este 14 Norte 0 982.3 0.2 82
2019-04-11 04:00:00 8.3 8 Nordeste 14 Nordeste 0 981.9 -0.3 78
2019-04-11 03:00:00 7.3 4 Nordeste 13 Noroeste 0 982.1 -0.3 80
2019-04-11 02:00:00 7.7 6 Noroeste 14 Norte 0 982.1 -0.1 79
2019-04-11 01:00:00 8.6 8 Noroeste 13 Noroeste 0 982.2 0.7 75
2019-04-11 00:00:00 8.5 7 Oeste 17 Nordeste 0 982.4 2.2 77
2019-04-10 23:00:00 11.2 4 Norte 30 Nordeste 0 982.2 3.1 65
2019-04-10 22:00:00 10.9 12 Este 36 Nordeste 0 981.5 3 66
2019-04-10 21:00:00 12.6 22 Este 41 Este 0 980.2 1.9 55
2019-04-10 20:00:00 16.8 15 Noroeste 37 Noroeste 0 979.1 0.5 40
2019-04-10 19:00:00 18.6 17 Noroeste 46 Noroeste 0 978.5 -0.8 32
2019-04-10 18:00:00 17.6 13 Noroeste 37 Oeste 0 978.3 -1.3 36
2019-04-10 17:00:00 18.8 14 Oeste 41 Noroeste 0 978.6 -1.3 37
2019-04-10 16:00:00 17.1 15 Noroeste 42 Noroeste 0 979.3 -1.3 37
2019-04-10 15:00:00 16.7 16 Oeste 51 Oeste 0 979.6 -1.1 47
2019-04-10 14:00:00 16.4 22 Oeste 44 Oeste 0 979.9 -0.9 49
2019-04-10 13:00:00 13.9 25 Oeste 39 Oeste 0 980.6 0 60
2019-04-10 12:00:00 13.7 18 Oeste 30 Oeste 0 980.7 0.3 60
2019-04-10 11:00:00 12.4 11 Oeste 21 Oeste 0 980.8 0.9 65
2019-04-10 10:00:00 10.1 10 Oeste 17 Sudoeste 0 980.6 0.7 83
2019-04-10 09:00:00 7.5 6 Oeste 11 Oeste 0 980.4 0.8 93
2019-04-10 08:00:00 7.5 4 Oeste 10 Oeste 0 979.9 0.2 92
2019-04-10 07:00:00 7.9 5 Sudoeste 9 Sudoeste 0 979.9 0.2 87
2019-04-10 06:00:00 8 3 Sur 7 Sudeste 0 979.6 -0.4 89
2019-04-10 05:00:00 8 3 Noroeste 12 Oeste 0 979.7 -0.2 85
2019-04-10 04:00:00 8.3 3 Sudoeste 9 Oeste 0 979.7 -0.3 83
2019-04-10 03:00:00 8.1 7 Oeste 12 Oeste 0 980 0.1 83
2019-04-10 02:00:00 8.2 5 Oeste 12 Oeste 0 979.9 0.2 79
2019-04-10 01:00:00 8.2 6 Noroeste 16 Noroeste 0 980 1 77
2019-04-10 00:00:00 9.1 7 Oeste 17 Oeste 0 979.9 1.5 75
2019-04-09 23:00:00 10.8 6 Oeste 31 Oeste 0 979.7 1.9 70
2019-04-09 22:00:00 12.1 13 Oeste 28 Oeste 0 979 1.7 64
2019-04-09 21:00:00 12.4 14 Oeste 44 Oeste 0 978.4 1.2 62
2019-04-09 20:00:00 14.6 22 Oeste 49 Oeste 0 977.8 0.7 53
2019-04-09 19:00:00 15.5 24 Oeste 51 Oeste 0 977.3 -0.3 48
2019-04-09 18:00:00 17.1 21 Oeste 49 Noroeste 0 977.2 -0.5 41
2019-04-09 17:00:00 17.4 20 Oeste 61 Oeste 0 977.1 -0.9 39
2019-04-09 16:00:00 16.1 18 Oeste 44 Noroeste 0 977.6 -0.9 51
2019-04-09 15:00:00 15.3 25 Oeste 46 Oeste 0 977.7 -0.9 53
2019-04-09 14:00:00 14.5 21 Oeste 33 Oeste 0 978 -0.2 65
2019-04-09 13:00:00 12.2 22 Oeste 39 Oeste 0.6 978.5 0.4 81
2019-04-09 12:00:00 10.4 23 Oeste 36 Oeste 0.4 978.6 0.5 87
2019-04-09 11:00:00 9.9 17 Oeste 35 Sudoeste 0.2 978.2 0.5 88
2019-04-09 10:00:00 10.7 19 Sudoeste 35 Oeste 0 978.1 0.3 83
2019-04-09 09:00:00 8.8 6 Sudoeste 19 Sudoeste 0 978.1 0.4 93
2019-04-09 08:00:00 8.4 4 Sur 19 Oeste 0 977.7 -0.4 91
2019-04-09 07:00:00 8.7 17 Oeste 26 Sudoeste 0 977.8 -0.5 91
2019-04-09 06:00:00 8.8 12 Sudoeste 26 Sudoeste 0 977.7 -0.9 93
2019-04-09 05:00:00 7.9 2 Oeste 14 Oeste 0 978.1 -0.5 92
2019-04-09 04:00:00 6.6 7 Oeste 14 Sudoeste 0 978.3 -0.1 93
2019-04-09 03:00:00 6.9 6 Oeste 12 Sudoeste 0 978.6 0.1 90
2019-04-09 02:00:00 7.9 2 Oeste 14 Sudoeste 0 978.6 0.4 88
2019-04-09 01:00:00 7.9 10 Sudoeste 20 Sudoeste 0 978.4 0.6 85
2019-04-09 00:00:00 8.4 15 Sudoeste 21 Sudoeste 0 978.5 1.2 84
2019-04-08 23:00:00 8.9 12 Sudoeste 19 Sudoeste 0 978.2 1 81
2019-04-08 22:00:00 9.6 12 Oeste 23 Sudoeste 0 977.8 0.9 78
2019-04-08 21:00:00 12 12 Oeste 24 Sudoeste 0 977.3 0.3 67
2019-04-08 20:00:00 12.8 11 Noroeste 46 Oeste 0 977.2 0.6 69
2019-04-08 19:00:00 14.4 21 Oeste 39 Oeste 0 976.9 0 54
2019-04-08 18:00:00 13.8 26 Oeste 53 Oeste 0 977 -0.2 65
2019-04-08 17:00:00 17.2 20 Oeste 40 Oeste 0 976.6 -1 48
2019-04-08 16:00:00 16 21 Oeste 36 Sudoeste 0 976.9 -0.9 48
2019-04-08 15:00:00 17 15 Oeste 34 Oeste 0 977.2 -0.8 42
2019-04-08 14:00:00 16 23 Oeste 39 Oeste 0 977.6 -0.1 46
2019-04-08 13:00:00 15.1 13 Oeste 30 Oeste 0 977.8 0.2 61
2019-04-08 12:00:00 12.7 13 Oeste 30 Oeste 0 978 0.7 75
2019-04-08 11:00:00 12.4 12 Oeste 24 Oeste 0 977.7 1.2 85
2019-04-08 10:00:00 11 12 Oeste 18 Oeste 0 977.6 1.4 95
2019-04-08 09:00:00 9.7 5 Oeste 22 Sudoeste 0 977.3 1.5 97
2019-04-08 08:00:00 9.2 11 Sudoeste 17 Sudoeste 0.2 976.5 1 96
2019-04-08 07:00:00 10.1 5 Noroeste 18 Oeste 0 976.2 0.8 97
2019-04-08 06:00:00 11.2 11 Oeste 21 Sudoeste 0 975.8 0 97
2019-04-08 05:00:00 11.5 9 Sudoeste 18 Sur 0.6 975.5 -0.9 98
2019-04-08 04:00:00 11.7 9 Sudoeste 19 Sur 1 975.4 -1.1 97
2019-04-08 03:00:00 11.5 9 Sudeste 16 Sur 0.6 975.8 -0.9 96
2019-04-08 02:00:00 11.7 9 Sur 19 Sur 0.4 976.4 -0.2 95
2019-04-08 01:00:00 11.4 7 Sudoeste 13 Sur 0 976.5 0 95
2019-04-08 00:00:00 11.5 6 Sudoeste 14 Sur 0 976.7 0.7 96
2019-04-07 23:00:00 11.8 3 Oeste 9 Sudoeste 0 976.6 0.7 97
2019-04-07 22:00:00 11.9 6 Sudoeste 12 Sur 0 976.5 0.7 97
2019-04-07 21:00:00 11.7 5 Sudeste 11 Este 0 976 0.1 98
2019-04-07 20:00:00 11.3 6 Sudeste 12 Sudeste 0.2 975.9 -0.3 97
2019-04-07 19:00:00 11.3 7 Sudeste 14 Sudeste 0.4 975.8 -0.5 96
2019-04-07 18:00:00 11.6 5 Sur 14 Sur 0.8 975.9 -0.6 94
2019-04-07 17:00:00 11.8 9 Sudoeste 24 Sur 0.4 976.2 -0.4 89
2019-04-07 16:00:00 13.1 10 Sudoeste 22 Sudoeste 0 976.3 -0.5 66
2019-04-07 15:00:00 12.9 13 Sudoeste 34 Sudoeste 0 976.5 -0.1 72
2019-04-07 14:00:00 12.8 13 Sudoeste 23 Sudoeste 0 976.6 0.4 69
2019-04-07 13:00:00 12.4 9 Sudoeste 17 Sudoeste 0 976.8 1 67
2019-04-07 12:00:00 10.8 5 Oeste 11 Oeste 0 976.6 1.3 76
2019-04-07 11:00:00 9.7 3 Sudoeste 8 Sudoeste 0 976.2 1.6 83
2019-04-07 10:00:00 9 3 Sur 8 Oeste 0 975.8 1.8 87
2019-04-07 09:00:00 7.9 5 Oeste 11 Oeste 0 975.3 1.7 91
2019-04-07 08:00:00 7.3 3 Oeste 6 Oeste 0 974.6 1.5 89
2019-04-07 07:00:00 7.4 0 Calma 8 Noroeste 0 974 0.9 88
2019-04-07 06:00:00 7.5 5 Noroeste 10 Noroeste 0 973.6 0.8 91
2019-04-07 05:00:00 7.3 5 Noroeste 12 Noroeste 0 973.1 0.5 94
2019-04-07 04:00:00 7.4 6 Oeste 18 Oeste 0 973.1 0.6 93
2019-04-07 03:00:00 6.7 8 Oeste 14 Oeste 0 972.8 0.7 94
2019-04-07 02:00:00 6.9 6 Oeste 20 Oeste 0 972.6 0.4 92
2019-04-07 01:00:00 7.6 11 Oeste 22 Oeste 0 972.5 0.9 84
2019-04-07 00:00:00 7.7 12 Oeste 19 Oeste 0 972.1 1.2 82
2019-04-06 23:00:00 8.1 12 Oeste 24 Sudoeste 0 972.2 1.7 76
2019-04-06 22:00:00 7.4 12 Oeste 24 Oeste 0 971.6 1.8 78
2019-04-06 21:00:00 8.4 15 Oeste 44 Oeste 0 970.9 1.5 70
2019-04-06 20:00:00 10.2 12 Oeste 41 Oeste 0 970.5 1.5 67
2019-04-06 19:00:00 11.8 21 Oeste 42 Noroeste 0 969.8 0.5 58
2019-04-06 18:00:00 9.1 23 Noroeste 55 Oeste 0 969.4 0.2 68
2019-04-06 17:00:00 11.5 27 Oeste 45 Oeste 0 969 -0.1 58
2019-04-06 16:00:00 11.3 19 Oeste 43 Oeste 0 969.3 -0.1 65
2019-04-06 15:00:00 10.8 26 Oeste 45 Oeste 0 969.2 -0.2 60
2019-04-06 14:00:00 11 26 Oeste 42 Oeste 0 969.1 0 67
2019-04-06 13:00:00 9 31 Oeste 45 Oeste 0.2 969.4 0.7 73
2019-04-06 12:00:00 8.1 21 Oeste 53 Oeste 0 969.4 1 83
2019-04-06 11:00:00 7.6 17 Sudoeste 31 Oeste 0 969.1 1.3 90
2019-04-06 10:00:00 7.1 13 Oeste 32 Oeste 0.2 968.7 1.1 93
2019-04-06 09:00:00 6.2 13 Oeste 25 Oeste 0.2 968.4 0.8 95
2019-04-06 08:00:00 6.5 15 Oeste 26 Oeste 0.4 967.8 -0.2 95
2019-04-06 07:00:00 6.2 11 Sudoeste 20 Sudoeste 0 967.6 -0.2 95
2019-04-06 06:00:00 6 5 Sudoeste 15 Oeste 0 967.6 -0.7 93
2019-04-06 05:00:00 5.5 6 Oeste 12 Noroeste 0 968 -0.6 93
2019-04-06 04:00:00 5.5 3 Sudoeste 8 Oeste 0 967.8 -0.7 91
2019-04-06 03:00:00 5.8 4 Oeste 9 Sudoeste 0 968.3 0.3 92
2019-04-06 02:00:00 4.3 4 Oeste 6 Noroeste 0 968.6 0.8 91
2019-04-06 01:00:00 4.6 0 Calma 5 Oeste 0 968.5 2.1 88
2019-04-06 00:00:00 4.8 2 Oeste 12 Oeste 0 968 2.6 82
2019-04-05 23:00:00 5.6 7 Oeste 20 Oeste 0 967.8 2.8 81
2019-04-05 22:00:00 6.9 10 Oeste 35 Oeste 0 966.4 2.1 79
2019-04-05 21:00:00 7.9 19 Oeste 41 Oeste 0.2 965.4 1.4 74
2019-04-05 20:00:00 9.6 20 Sudoeste 42 Sudoeste 0 965 1.2 71
2019-04-05 19:00:00 10.8 26 Sudoeste 45 Oeste 0 964.3 0.5 62
2019-04-05 18:00:00 11.5 27 Oeste 50 Oeste 0 964 0 57
2019-04-05 17:00:00 13.1 31 Oeste 54 Oeste 0 963.8 -0.5 45
2019-04-05 16:00:00 12 23 Oeste 40 Oeste 0 963.8 -1.1 48
2019-04-05 15:00:00 11.9 27 Oeste 42 Sudoeste 0 964 -0.6 54
2019-04-05 14:00:00 10.4 21 Oeste 38 Oeste 0 964.3 0.6 64
2019-04-05 13:00:00 9.3 23 Sudoeste 37 Oeste 0 964.9 1.1 69
2019-04-05 12:00:00 8.1 22 Oeste 35 Oeste 0 964.6 1.6 77
2019-04-05 11:00:00 6.4 14 Oeste 39 Oeste 0.2 963.7 1.2 87
2019-04-05 10:00:00 6.9 16 Oeste 27 Oeste 0 963.8 1.4 94
2019-04-05 09:00:00 6.4 8 Oeste 16 Sudoeste 0 963 0.4 96
2019-04-05 08:00:00 6.4 8 Oeste 12 Oeste 0 962.5 -0.3 95
2019-04-05 07:00:00 7.1 6 Sudoeste 20 Sudoeste 0 962.4 -0.8 94
2019-04-05 06:00:00 8 10 Sudoeste 29 Sudoeste 0 962.6 -1.2 95
2019-04-05 05:00:00 8 8 Sudoeste 26 Sudoeste 0 962.8 -1.6 95
2019-04-05 04:00:00 7.9 13 Sudoeste 25 Sudoeste 0.2 963.2 -2 95
2019-04-05 03:00:00 7.5 8 Sur 23 Sudeste 0.4 963.8 -1.7 96
2019-04-05 02:00:00 7.4 14 Sudeste 22 Este 1.4 964.4 -1.8 95
2019-04-05 01:00:00 7.7 5 Sur 13 Sur 0.2 965.2 -0.9 90
2019-04-05 00:00:00 7.8 3 Sur 12 Sudoeste 0 965.5 -0.5 88
2019-04-04 23:00:00 7.7 8 Oeste 18 Oeste 0.2 966.2 1.2 91
2019-04-04 22:00:00 8 6 Oeste 26 Oeste 1 966.1 0.9 90
2019-04-04 21:00:00 9.5 13 Oeste 47 Oeste 0 966 0.3 73
2019-04-04 20:00:00 13.7 23 Oeste 41 Oeste 0 965 -1 39
2019-04-04 19:00:00 15.2 14 Sudoeste 35 Sudoeste 0 965.2 -1.9 31
2019-04-04 18:00:00 16 19 Oeste 33 Oeste 0 965.7 -2.5 26
2019-04-04 17:00:00 17.1 18 Oeste 31 Oeste 0 966 -3.2 22
2019-04-04 16:00:00 16.8 14 Oeste 28 Oeste 0 967.1 -2.9 25
2019-04-04 15:00:00 15.6 5 Sudoeste 24 Sudoeste 0 968.2 -2.1 26
2019-04-04 14:00:00 14.7 6 Sur 23 Oeste 0 969.2 -1.3 30
2019-04-04 13:00:00 13.2 6 Sur 19 Sudeste 0 970 -0.8 32
2019-04-04 12:00:00 13 6 Sudeste 21 Noroeste 0 970.3 -0.3 36
2019-04-04 11:00:00 10.1 10 Norte 24 Noroeste 0 970.5 0.4 42
2019-04-04 10:00:00 7.3 10 Norte 21 Noroeste 0 970.8 0.8 54
2019-04-04 09:00:00 5.9 13 Noroeste 32 Norte 0 970.6 0.6 58
2019-04-04 08:00:00 4.8 18 Noroeste 29 Norte 0 970.1 0.1 61
2019-04-04 07:00:00 5.5 15 Norte 37 Norte 0 970 -0.3 58
2019-04-04 06:00:00 5.4 13 Nordeste 26 Norte 0 970 -0.6 57
2019-04-04 05:00:00 5 4 Sudeste 14 Norte 0 970 -1 58
2019-04-04 04:00:00 6.2 8 Norte 16 Norte 0 970.3 -0.7 55
2019-04-04 03:00:00 7 4 Oeste 21 Norte 0 970.6 -0.9 51
2019-04-04 02:00:00 6 12 Sudoeste 30 Noroeste 0 971 -0.3 55
2019-04-04 01:00:00 8.1 15 Noroeste 29 Noroeste 0 971 0.6 49
2019-04-04 00:00:00 8.9 8 Norte 18 Norte 0 971.5 1.5 45
2019-04-03 23:00:00 9.8 8 Norte 22 Norte 0 971.3 1.5 42
2019-04-03 22:00:00 11.4 8 Norte 23 Norte 0 970.4 0.4 39
2019-04-03 21:00:00 12.9 12 Norte 33 Norte 0 970 -0.2 33
2019-04-03 20:00:00 15.2 15 Norte 42 Noroeste 0 969.8 -0.9 29
2019-04-03 19:00:00 16.2 19 Noroeste 45 Noroeste 0 970 -1.1 27
2019-04-03 18:00:00 16.4 22 Noroeste 42 Noroeste 0 970.2 -1.4 27
2019-04-03 17:00:00 16.9 21 Norte 49 Noroeste 0 970.7 -1.5 27
2019-04-03 16:00:00 16.6 24 Noroeste 49 Noroeste 0 971.1 -1.6 28
2019-04-03 15:00:00 16.7 15 Noroeste 40 Noroeste 0 971.6 -1.4 29
2019-04-03 14:00:00 15.6 20 Noroeste 44 Noroeste 0 972.2 -1 33
2019-04-03 13:00:00 14.7 17 Noroeste 45 Noroeste 0 972.7 -0.9 37
2019-04-03 12:00:00 13.5 15 Noroeste 35 Noroeste 0 973 -0.8 44
2019-04-03 11:00:00 12.4 17 Norte 30 Noroeste 0 973.2 -0.8 50
2019-04-03 10:00:00 9.5 5 Noroeste 12 Noroeste 0 973.6 -0.4 72
2019-04-03 09:00:00 7.3 5 Norte 11 Noroeste 0 973.8 -0.3 77
2019-04-03 08:00:00 6.1 0 Calma 21 Norte 0 974 -0.8 79
2019-04-03 07:00:00 7.1 12 Noroeste 20 Norte 0 974 -1.3 78
2019-04-03 06:00:00 7.5 6 Noroeste 11 Norte 0 974.1 -1.9 75
2019-04-03 05:00:00 8.3 4 Noroeste 10 Noroeste 0 974.8 -1.8 72
2019-04-03 04:00:00 9.5 5 Noroeste 11 Noroeste 0 975.3 -1.4 67
2019-04-03 03:00:00 10.5 8 Noroeste 14 Noroeste 0 976 -1.1 64
2019-04-03 02:00:00 10.9 7 Noroeste 18 Noroeste 0 976.6 -0.4 65
2019-04-03 01:00:00 11.6 8 Noroeste 13 Oeste 0 976.7 0.4 66
2019-04-03 00:00:00 12.4 5 Oeste 18 Norte 0 977.1 0.9 63
2019-04-02 23:00:00 13.8 13 Noroeste 20 Noroeste 0 977 0.9 59
2019-04-02 22:00:00 14.8 10 Oeste 19 Oeste 0 976.3 0.1 51
2019-04-02 21:00:00 17.4 4 Oeste 21 Oeste 0 976.2 -0.4 49
2019-04-02 20:00:00 19.8 17 Oeste 28 Oeste 0 976.1 -0.9 43
2019-04-02 19:00:00 20.3 11 Oeste 32 Oeste 0 976.2 -1.4 41
2019-04-02 18:00:00 20.1 16 Oeste 27 Oeste 0 976.6 -1.7 41
2019-04-02 17:00:00 22.6 12 Sudoeste 33 Oeste 0 977 -1.9 36
2019-04-02 16:00:00 21.7 9 Oeste 26 Oeste 0 977.6 -2 33
2019-04-02 15:00:00 20.9 8 Oeste -- -- 0 978.3 -1.7 38
2019-04-02 14:00:00 20.1 8 Oeste 20 Oeste 0 978.9 -1 39
2019-04-02 13:00:00 18.1 7 Oeste 17 Oeste 0 979.6 -0.3 49
2019-04-02 12:00:00 15.9 6 Oeste 13 Oeste 0 980 0.4 63
2019-04-02 11:00:00 13.2 4 Sudoeste 9 Sudoeste 0 979.9 0.8 78
2019-04-02 10:00:00 10.5 5 Oeste 15 Oeste 0 979.9 1 89
2019-04-02 09:00:00 8.9 3 Oeste 7 Noroeste 0 979.6 1 95
2019-04-02 08:00:00 8.2 3 Nordeste 8 Este 0 979.1 0 93
2019-04-02 07:00:00 8.9 3 Este 5 Sudeste 0 978.9 -0.2 91
2019-04-02 06:00:00 9.8 3 Sudeste 7 Sudeste 0 978.6 -0.9 87
2019-04-02 05:00:00 10.7 3 Noroeste 7 Noroeste 0 979.1 0 84
2019-04-02 04:00:00 11 5 Oeste 9 Oeste 0 979.1 0.2 82
2019-04-02 03:00:00 11.1 5 Oeste 9 Oeste 0 979.5 0.4 83
2019-04-02 02:00:00 11.2 2 Noroeste 9 Este 0 979.1 0.3 81
2019-04-02 01:00:00 11.7 5 Este 9 Nordeste 0 978.9 0.7 79
2019-04-02 00:00:00 13.2 4 Oeste 25 Norte 0 979.1 1.9 73
2019-04-01 23:00:00 14.1 14 Norte 25 Norte 0 978.8 2.1 62
2019-04-01 22:00:00 15 5 Norte 14 Norte 0 978.2 1.8 63
2019-04-01 21:00:00 16.1 0 Calma 4 Sudoeste 0 977.2 0.8 59
2019-04-01 20:00:00 17.1 0 Calma 6 Sudoeste 0 976.7 0.3 58
2019-04-01 19:00:00 17.3 4 Sudeste 17 Este 0 976.4 -0.7 56
2019-04-01 18:00:00 17.5 3 Oeste 11 Oeste 0 976.4 -1 53
2019-04-01 17:00:00 16.5 5 Oeste 14 Sudoeste 0.2 976.4 -1.3 61
2019-04-01 16:00:00 15 6 Sudoeste 18 Sudoeste 0 977.1 -0.9 78
2019-04-01 15:00:00 16.4 9 Sur 21 Sudeste 0 977.4 -0.6 63
2019-04-01 14:00:00 17.9 8 Sudeste 23 Este 0 977.7 0.2 56
2019-04-01 13:00:00 16.3 11 Este 26 Este 0 978 1 61
2019-04-01 12:00:00 14.7 14 Este 28 Este 0 978 1.5 68
2019-04-01 11:00:00 13 14 Este 31 Este 0 977.5 1.4 74
2019-04-01 10:00:00 11.9 11 Este 20 Este 0 977 1.3 76
2019-04-01 09:00:00 11 9 Este 15 Nordeste 0 976.5 0.9 76
2019-04-01 08:00:00 10.7 7 Este 14 Este 0 976.1 0.7 79
2019-04-01 07:00:00 10.5 6 Nordeste 16 Este 0 975.7 -0.1 78
2019-04-01 06:00:00 11 10 Este 24 Este 0 975.6 -0.4 75
2019-04-01 05:00:00 11.6 15 Este 25 Este 0 975.4 -0.5 73
2019-04-01 04:00:00 11.6 15 Este 26 Este 0 975.8 0 71
2019-04-01 03:00:00 12 13 Este 22 Este 0 976 0.5 69
2019-04-01 02:00:00 12.2 11 Este 19 Este 0 975.9 0.6 67
2019-04-01 01:00:00 13.3 15 Este 31 Este 0 975.8 1.3 62
2019-04-01 00:00:00 13.8 19 Este 43 Este 0 975.5 1.8 60
2019-03-31 23:00:00 14.3 20 Este 33 Este 0 975.3 2.3 59
2019-03-31 22:00:00 14.4 16 Este 29 Este 0 974.5 1.2 57
2019-03-31 21:00:00 16.3 14 Este 29 Este 0 973.7 0.5 49
2019-03-31 20:00:00 18.8 7 Este 32 Nordeste 0 973 -0.6 36
2019-03-31 19:00:00 18.7 18 Norte 35 Norte 0 973.3 -0.5 41
2019-03-31 18:00:00 19.9 15 Nordeste 31 Este 0 973.2 -1.7 32
2019-03-31 17:00:00 21.3 5 Este 28 Sudeste 0 973.6 -2.1 33
2019-03-31 16:00:00 21.3 15 Sudeste 31 Este 0 973.8 -2.5 35
2019-03-31 15:00:00 20.3 19 Este 35 Este 0 974.9 -1.7 37
2019-03-31 14:00:00 19.3 20 Este 43 Este 0 975.7 -0.9 40
2019-03-31 13:00:00 18.2 22 Este 43 Este 0 976.3 -0.1 42
2019-03-31 12:00:00 15.8 25 Este 41 Este 0 976.6 0.5 50
2019-03-31 11:00:00 13.3 24 Este 38 Este 0 976.6 0.9 57
2019-03-31 10:00:00 12.8 17 Este 27 Este 0 976.4 0.8 60
2019-03-31 09:00:00 11.8 4 Este 20 Este 0 976.1 0.1 61
2019-03-31 08:00:00 11.5 13 Este 30 Este 0 975.7 -0.6 62
2019-03-31 07:00:00 11.7 18 Este 28 Este 0 975.6 -1 56
2019-03-31 06:00:00 9.6 8 Este 15 Este 0 976 -1.2 62
2019-03-31 05:00:00 9.9 9 Este 14 Este 0 976.3 -1.6 61
2019-03-31 03:00:00 12.1 5 Noroeste 10 Este 0 977.2 -1 52
2019-03-31 01:00:00 12.4 6 Este 20 Sur 0 977.9 -0.2 49
2019-03-31 00:00:00 13.5 2 Nordeste 8 Este 0 977.9 -0.2 43
2019-03-30 23:00:00 14 4 Sudeste 14 Norte 0 978.2 0.3 43
2019-03-30 22:00:00 16.7 8 Nordeste 15 Norte 0 978.1 0.2 31
2019-03-30 21:00:00 17 7 Nordeste 15 Este 0 978.1 0.2 29
2019-03-30 20:00:00 17.7 10 Este 16 Este 0 977.9 0.1 31
2019-03-30 19:00:00 18.9 7 Este 21 Este 0 977.9 -0.6 32
2019-03-30 18:00:00 20 14 Este 24 Este 0 977.9 -1.6 26
2019-03-30 17:00:00 21.8 8 Este 24 Sudeste 0 977.8 -2.7 22
2019-03-30 16:00:00 21.5 8 Este 27 Este 0 978.5 -3 25
2019-03-30 15:00:00 21 15 Este 31 Sudeste 0 979.5 -2.9 27
2019-03-30 14:00:00 19.6 15 Este 34 Este 0 980.5 -2.5 30
2019-03-30 13:00:00 18.5 17 Este 36 Este 0 981.5 -1.7 35
2019-03-30 12:00:00 16.9 20 Este 37 Este 0 982.4 -0.6 36
2019-03-30 11:00:00 15.3 22 Este 38 Sudeste 0 983 0 41
2019-03-30 10:00:00 13 27 Este 42 Este 0 983.2 0.5 47
2019-03-30 09:00:00 11.5 26 Este 46 Este 0 983 0.6 52
2019-03-30 08:00:00 9.3 18 Este 33 Este 0 983 0.7 60
2019-03-30 07:00:00 9.1 21 Este 34 Este 0 982.7 0.3 60
2019-03-30 06:00:00 9.5 21 Este 34 Este 0 982.4 -0.2 57
2019-03-30 05:00:00 9.8 17 Este 29 Este 0 982.3 -0.4 53
2019-03-30 04:00:00 10.1 17 Este 28 Este 0 982.4 -0.6 48
2019-03-30 03:00:00 7.9 3 Nordeste 9 Este 0 982.6 -0.4 52
2019-03-30 02:00:00 8.7 3 Este 6 Noroeste 0 982.7 -0.4 49
2019-03-30 01:00:00 10.1 2 Noroeste 14 Este 0 983 -0.3 47
2019-03-30 00:00:00 11.4 4 Este 14 Nordeste 0 983 0.1 42
2019-03-29 23:00:00 13.4 8 Nordeste 11 Nordeste 0 983.1 0.5 33
2019-03-29 22:00:00 14.1 4 Sudeste 14 Este 0 983.3 0.8 33
2019-03-29 21:00:00 15.7 9 Nordeste 14 Este 0 982.9 0.5 28
2019-03-29 20:00:00 17 7 Nordeste 14 Este 0 982.6 0.1 26
2019-03-29 19:00:00 19.3 10 Este -- -- 0 982.5 -0.5 23
2019-03-29 18:00:00 20.1 14 Sudeste -- -- 0 982.4 -1.5 21
2019-03-29 17:00:00 20.6 21 Este 39 Sudeste 0 982.5 -2.2 21
2019-03-29 16:00:00 20.8 21 Sudeste -- -- 0 983 -2.4 21
2019-03-29 15:00:00 20.8 20 Sudeste 40 Este 0 983.9 -2.2 22
2019-03-29 14:00:00 19.7 23 Este 41 Sudeste 0 984.7 -1.9 22
2019-03-29 13:00:00 18.7 24 Sudeste 40 Este 0 985.4 -1.5 25
2019-03-29 12:00:00 17.5 22 Este 47 Sudeste 0 986.1 -0.7 26
2019-03-29 11:00:00 15.7 27 Este -- -- 0 986.6 0.2 30
2019-03-29 10:00:00 13.5 23 Este 37 Sudeste 0 986.9 1.1 34
2019-03-29 09:00:00 11.1 18 Este 30 Este 0 986.8 1.4 38
2019-03-29 08:00:00 8.7 16 Este 31 Este 0 986.4 1.2 43
2019-03-29 07:00:00 8.3 14 Este 23 Este 0 985.8 0.7 45
2019-03-29 06:00:00 8.2 12 Este 19 Este 0 985.4 0.4 46
2019-03-29 05:00:00 10 12 Este 19 Este 0 985.2 -0.1 41
2019-03-29 04:00:00 8.8 4 Sur 13 Este 0 985.1 -0.1 49
2019-03-29 03:00:00 11.7 7 Nordeste 14 Nordeste 0 985 -0.4 34
2019-03-29 02:00:00 9.1 2 Nordeste -- -- 0 985.3 -0.3 45
2019-03-29 01:00:00 10.5 2 Este 6 Este 0 985.2 -0.4 39
2019-03-29 00:00:00 11.9 4 Este 8 Este 0 985.4 0.1 34
2019-03-28 23:00:00 13.9 5 Nordeste 12 Este 0 985.6 0.7 29
2019-03-28 22:00:00 15.8 8 Este 14 Este 0 985.6 0.9 25
2019-03-28 21:00:00 16.8 9 Este 14 Este 0 985.3 0.6 24
2019-03-28 20:00:00 17.4 10 Este 15 Este 0 984.9 -0.2 25
2019-03-28 19:00:00 20.3 9 Este 22 Este 0 984.7 -0.9 22
2019-03-28 18:00:00 21.4 14 Este 25 Sudeste 0 984.7 -1.7 21
2019-03-28 17:00:00 22.1 10 Este 31 Este 0 985.1 -2.1 19
2019-03-28 16:00:00 22.5 9 Este -- -- 0 985.6 -2.3 18
2019-03-28 15:00:00 21.6 14 Este 33 Este 0 986.4 -2.1 18
2019-03-28 14:00:00 20.9 17 Este 32 Sudeste 0 987.2 -1.6 21
2019-03-28 13:00:00 19.8 18 Este 34 Sudeste 0 987.9 -1.1 24
2019-03-28 12:00:00 18.4 19 Este 36 Este 0 988.5 -0.3 28
2019-03-28 11:00:00 16.1 23 Este 36 Este 0 988.8 0.5 30
2019-03-28 10:00:00 13.3 16 Este 26 Este 0 989 1.2 38
2019-03-28 09:00:00 10 13 Este 24 Este 0 988.8 1.5 49
2019-03-28 08:00:00 6.8 10 Este 16 Este 0 988.3 1.3 58
2019-03-28 07:00:00 6.1 4 Sudoeste 11 Nordeste 0 987.8 0.9 67
2019-03-28 06:00:00 8 8 Nordeste 14 Nordeste 0 987.3 0.4 54
2019-03-28 05:00:00 7.9 6 Nordeste 12 Este 0 987 0.3 55
2019-03-28 04:00:00 8.7 7 Nordeste 13 Este 0 986.9 0 58
2019-03-28 03:00:00 7 3 Este 9 Este 0 986.9 0.4 70
2019-03-28 02:00:00 8.9 2 Sudeste 12 Este 0 986.7 0.7 59
2019-03-28 01:00:00 9.4 2 Nordeste 8 Este 0 986.9 1.2 57
2019-03-28 00:00:00 11.5 5 Sudeste 9 Nordeste 0 986.5 1.1 49
2019-03-27 23:00:00 12.6 5 Noroeste 11 Este 0 986 1.2 43
2019-03-27 22:00:00 15 8 Este 15 Este 0 985.7 1.3 34
2019-03-27 21:00:00 15.4 10 Este 16 Este 0 985.4 1.2 34
2019-03-27 20:00:00 16.5 10 Este 14 Este 0 984.8 0.6 33
2019-03-27 19:00:00 19.6 8 Este 17 Este 0 984.4 -0.2 28
2019-03-27 18:00:00 20.7 10 Sudeste 23 Este 0 984.2 -1 25
2019-03-27 17:00:00 21.2 11 Este 21 Este 0 984.2 -1.7 24
2019-03-27 16:00:00 20.8 14 Sudeste 33 Sudeste 0 984.6 -1.8 25
2019-03-27 15:00:00 20.2 14 Este 34 Este 0 985.2 -1.4 25
2019-03-27 14:00:00 19.5 21 Este 43 Este 0 985.9 -0.7 26
2019-03-27 13:00:00 18.8 19 Este 41 Este 0 986.4 -0.1 30
2019-03-27 12:00:00 17.3 23 Este 49 Este 0 986.6 0.3 33
2019-03-27 11:00:00 15.6 28 Este 45 Este 0 986.6 0.7 34
2019-03-27 10:00:00 13.7 25 Este 53 Este 0 986.5 1.8 41
2019-03-27 09:00:00 11.8 25 Este 39 Este 0 986.3 2.4 46
2019-03-27 08:00:00 9.8 19 Este 35 Este 0 985.9 3 57
2019-03-27 07:00:00 10 19 Este 37 Este 0 984.7 2.4 54
2019-03-27 06:00:00 11.1 7 Este 37 Este 0 983.9 1.6 47
2019-03-27 05:00:00 12.4 21 Este 53 Este 0 982.9 1 40
2019-03-27 04:00:00 13.5 27 Este 44 Este 0 982.3 0.7 32
2019-03-27 03:00:00 14.5 25 Este 44 Este 0 982.3 1.6 27
2019-03-27 02:00:00 13.6 14 Este 28 Este 0 981.9 1.7 29
2019-03-27 01:00:00 14.3 9 Nordeste 33 Este 0 981.6 2.1 28
2019-03-27 00:00:00 14.5 15 Este 26 Este 0 980.7 1.8 31
2019-03-26 23:00:00 15 13 Este 22 Este 0 980.2 1.8 33
2019-03-26 22:00:00 17.1 8 Nordeste 17 Nordeste 0 979.5 1.7 29
2019-03-26 21:00:00 17.8 10 Este 18 Este 0 978.9 1.3 29
2019-03-26 20:00:00 18.7 10 Este 25 Este 0 978.4 0.6 28
2019-03-26 19:00:00 21.7 14 Este 32 Este 0 977.8 -0.3 23
2019-03-26 18:00:00 23.2 13 Nordeste 33 Este 0 977.6 -0.9 22
2019-03-26 17:00:00 23.3 13 Nordeste 40 Este 0 977.8 -1.2 23
2019-03-26 16:00:00 22.6 17 Este 43 Este 0 978.1 -1.9 25
2019-03-26 15:00:00 21.8 20 Este 45 Este 0 978.5 -2.2 27
2019-03-26 14:00:00 20.9 19 Este 41 Este 0 979 -2 29
2019-03-26 13:00:00 19.3 14 Este 36 Este 0 980 -1 30
2019-03-26 12:00:00 17 19 Este 37 Este 0 980.7 -0.2 31
2019-03-26 11:00:00 15.4 19 Este 37 Nordeste 0 981 0.2 32
2019-03-26 10:00:00 13.3 15 Este 39 Nordeste 0 981 0.6 37
2019-03-26 09:00:00 11 13 Este 30 Este 0 980.9 0.7 45
2019-03-26 08:00:00 8.2 10 Nordeste 26 Nordeste 0 980.8 0.7 53
2019-03-26 07:00:00 8.6 9 Nordeste 31 Nordeste 0 980.4 0.1 51
2019-03-26 06:00:00 9.5 12 Nordeste 32 Norte 0 980.2 -0.3 48
2019-03-26 05:00:00 10.1 16 Nordeste 33 Este 0 980.1 -0.1 47
2019-03-26 04:00:00 11.1 15 Nordeste 29 Nordeste 0 980.3 -0.2 45
2019-03-26 03:00:00 12.3 12 Este 40 Nordeste 0 980.5 0 42
2019-03-26 02:00:00 12.1 13 Nordeste 31 Nordeste 0 980.2 0.3 43
2019-03-26 01:00:00 12.6 4 Nordeste 14 Norte 0 980.5 0.5 42
2019-03-26 00:00:00 13.9 7 Sudoeste 44 Nordeste 0 980.5 0.8 38
2019-03-25 23:00:00 16.1 28 Nordeste 48 Norte 0 979.9 0.6 31
2019-03-25 22:00:00 16.8 23 Nordeste 43 Nordeste 0 980 0.8 28
2019-03-25 21:00:00 18.1 19 Nordeste 43 Nordeste 0 979.7 0.6 23
2019-03-25 20:00:00 19.7 16 Nordeste 35 Nordeste 0 979.3 -0.1 20
2019-03-25 19:00:00 22.3 12 Nordeste 33 Este 0 979.2 -0.9 22
2019-03-25 18:00:00 23.8 12 Nordeste 41 Este 0 979.1 -2.1 21
2019-03-25 17:00:00 24.3 13 Nordeste 28 Este 0 979.4 -3 19
2019-03-25 16:00:00 24.8 6 Nordeste 17 Nordeste 0 980.1 -3.3 22
2019-03-25 15:00:00 23.5 12 Este 23 Sudeste 0 981.2 -2.9 26
2019-03-25 14:00:00 23.2 8 Nordeste 23 Sudeste 0 982.4 -2.1 26
2019-03-25 13:00:00 21.5 12 Nordeste 30 Este 0 983.4 -1.5 28
2019-03-25 12:00:00 20.4 14 Este 32 Este 0 984.1 -0.4 30
2019-03-25 11:00:00 18 18 Este 30 Este 0 984.5 0.2 39
2019-03-25 10:00:00 15.9 9 Este 15 Este 0 984.9 0.8 49
2019-03-25 09:00:00 13.6 6 Este 19 Nordeste 0 984.5 0.8 51
2019-03-25 08:00:00 10.9 9 Este 19 Nordeste 0 984.3 0.9 54
2019-03-25 07:00:00 9.9 4 Este 13 Nordeste 0 984.1 0.6 57
2019-03-25 06:00:00 9.6 6 Nordeste 14 Este 0 983.7 0 59
2019-03-25 05:00:00 9.4 12 Este 15 Este 0 983.4 -0.5 64
2019-03-25 04:00:00 9.4 6 Este 8 Este 0 983.5 -0.3 62
2019-03-25 03:00:00 10.2 2 Noroeste 11 Este 0 983.7 -0.2 59
2019-03-25 02:00:00 11.5 4 Noroeste 9 Este 0 983.9 0.1 52
2019-03-25 01:00:00 12 3 Este 7 Nordeste 0 983.8 0 53
2019-03-25 00:00:00 13.2 3 Noroeste 14 Este 0 983.9 0.5 47